Portada
METAR-TAF:

METAR-TAF

Aeroports :

Doha, Qatar

latitud: 25-16-23N, longitud: 51-36-29E, altitud: 4 m

Observació

L'informe es va fer fa 1 hora i 53 minuts, a les 22:00 UTC
Vent 5 kt del Nord/Nord-Oest
Temperatura 22°C
Humitat 83%
Pressió 1016 hPa
Visibilitat 10 km o més
sense núvols per sota de 1500 mi sense presència de cumulonimbus.

METAR: OTHH 302200Z AUTO 33005KT CAVOK 22/19 Q1016 NOSIG

Hora: 02:53 (23:53 UTC)

Pronòstic

L'informe es va fer fa 6 hores i 42 minuts, a les 17:11 UTC
Pronòstic vàlid del 30 a les 18 UTC al 01 a les 24 UTC
Vent 5 kt del Est/Sud-Est
Visibilitat: 8000 m
Temporalment
l' 30 a les 18 UTC al 01 a les 06 UTC
Vent 3 kt amb direcció variable
Temporalment
l' 30 a les 20 UTC al 01 a les 03 UTC
Vent 5 kt del Oest
Probabilitat 30% :
Temporalment
l' 01 a les 01 UTC al 01 a les 04 UTC
Visibilitat: 5000 m
calitja

TAF: OTHH 301711Z 3018/0124 11005KT 8000 NSC TEMPO 3018/0106 VRB03KT TEMPO 3020/0103 28005KT PROB30 TEMPO 0101/0104 5000 HZ

Observacions i pronòstics meteorològics de més de 4000 aeroports (METAR i TAF).

Les estacions disponibles són els punts grocs i vermells al mapa.

Posi el ratolí al punt desitjat per veure el nom de l'estació.

Feu clic per veure les observacions i els pronòstics meteorològics.

Per canviar el mapa: feu clic els botons verds amb una creu de color negre per apropar; al botó verd amb un guió per allunyar la imatge; o en les fletxes verdes per a mapes adjacents.


METAR-TAF: